This is the latest recevied weather packets stored in our database for station/object OE3XAM-13. If no packets are shown the sender has not sent any weather packets the latest 10 day(s).
| Time | Temp. | Humidity | Pressure | Rain* | Wind** | Luminosity | Snow |
|---|---|---|---|---|---|---|---|
| 1777291888 | 20.56° C | 25% | 985 hPa | 0 mm | - | - | - |
| 1777290088 | 20° C | 27% | 985 hPa | 0 mm | - | - | - |
| 1777288288 | 18.89° C | 28% | 985 hPa | 0 mm | - | - | - |
| 1777286488 | 18.33° C | 30% | 986 hPa | 0 mm | - | - | - |
| 1777284688 | 17.22° C | 31% | 986 hPa | 0 mm | - | - | - |
| 1777282888 | 16.67° C | 33% | 986 hPa | 0 mm | - | - | - |
| 1777281088 | 15.56° C | 34% | 987 hPa | 0 mm | - | - | - |
| 1777279288 | 13.89° C | 37% | 987 hPa | 0 mm | - | - | - |
| 1777277488 | 12.78° C | 40% | 987 hPa | 0 mm | - | - | - |
| 1777275688 | 11.67° C | 42% | 986 hPa | 0 mm | - | - | - |
| 1777273888 | 10.56° C | 47% | 987 hPa | 0 mm | - | - | - |
| 1777272088 | 8.89° C | 52% | 987 hPa | 0 mm | - | - | - |
| 1777270288 | 7.22° C | 60% | 987 hPa | 0 mm | - | - | - |
| 1777268488 | 5° C | 69% | 987 hPa | 0 mm | - | - | - |
| 1777266688 | 3.33° C | 75% | 987 hPa | 0 mm | - | - | - |
| 1777264888 | 2.78° C | 74% | 987 hPa | 0 mm | - | - | - |
| 1777263088 | 2.78° C | 74% | 987 hPa | 0 mm | - | - | - |
| 1777261288 | 2.78° C | 72% | 986 hPa | 0 mm | - | - | - |
| 1777259488 | 3.33° C | 71% | 986 hPa | 0 mm | - | - | - |
| 1777257688 | 3.89° C | 69% | 986 hPa | 0 mm | - | - | - |
| 1777255888 | 4.44° C | 67% | 986 hPa | 0 mm | - | - | - |
| 1777254088 | 5° C | 65% | 986 hPa | 0 mm | - | - | - |
| 1777252288 | 5.56° C | 61% | 987 hPa | 0 mm | - | - | - |
| 1777250488 | 6.67° C | 57% | 987 hPa | 0 mm | - | - | - |
| 1777248688 | 7.22° C | 54% | 987 hPa | 0 mm | - | - | - |
* Rain latest hour (hover to see other rain measurements)
** Current wind speed in m/s (hover to see current wind gust speed)